Time;durP1;ratioP1;P1;durP2;ratioP2;P2;SDS_P1;SDS_P2;PMS_P1;PMS_P2;Temp;Humidity;BMP_temperature;BMP_pressure;BME280_temperature;BME280_humidity;BME280_pressure;Samples;Min_cycle;Max_cycle;Signal;HPM_P1;HPM_P2
2021/07/05 00:01:33;;;;;;;;;;;;;;;18.33;62.09;97558.55;1682845;85;26070;-89
2021/07/05 00:03:59;;;;;;;;;;;;;;;18.45;62.25;97559.79;1682216;85;24378;-88
2021/07/05 00:06:27;;;;;;;;;;;;;;;18.57;62.33;97551.78;1646844;85;20295;-88
2021/07/05 00:08:53;;;;;;;;;;;;;;;18.65;62.34;97555.70;1666932;85;24796;-88
2021/07/05 00:11:26;;;;;;;;;;;;;;;18.67;62.35;97555.50;1688634;84;22073;-88
2021/07/05 00:13:53;;;;;;;;;;;;;;;18.72;62.34;97554.45;1705429;82;25931;-89
2021/07/05 00:16:26;;;;;;;;;;;;;;;18.71;62.33;97554.95;1670022;84;25444;-89
2021/07/05 00:18:57;;;;;;;;;;;;;;;18.64;62.37;97555.37;1654742;84;20344;-89
2021/07/05 00:21:20;;;;;;;;;;;;;;;18.51;62.39;97555.11;1663429;84;24763;-89
2021/07/05 00:23:46;;;;;;;;;;;;;;;18.38;62.42;97563.64;1657546;86;22207;-89
2021/07/05 00:26:12;;;;;;;;;;;;;;;18.40;62.48;97558.17;1675567;84;21212;-89
2021/07/05 00:28:53;;;;;;;;;;;;;;;18.46;62.55;97553.99;1680839;84;20295;-89
2021/07/05 00:31:18;;;;;;;;;;;;;;;18.47;62.56;97561.77;1685442;84;20188;-89
2021/07/05 00:33:45;;;;;;;;;;;;;;;18.40;62.55;97553.70;1653111;85;24862;-89
2021/07/05 00:36:12;;;;;;;;;;;;;;;18.35;62.55;97553.91;1681818;84;22159;-89
2021/07/05 00:38:38;;;;;;;;;;;;;;;18.28;62.56;97553.79;1676372;84;26778;-89
2021/07/05 00:41:05;;;;;;;;;;;;;;;18.13;62.58;97561.35;1675339;84;24687;-89
2021/07/05 00:43:31;;;;;;;;;;;;;;;18.02;62.61;97560.42;1658675;85;20860;-88
2021/07/05 00:45:59;;;;;;;;;;;;;;;17.90;62.67;97560.83;1664209;83;24761;-90
2021/07/05 00:48:25;;;;;;;;;;;;;;;17.83;62.75;97556.42;1657128;86;21952;-88
2021/07/05 00:51:02;;;;;;;;;;;;;;;17.86;62.89;97558.20;1650712;86;26524;-88
2021/07/05 00:53:30;;;;;;;;;;;;;;;17.89;62.99;97561.81;1634506;87;24459;-87
2021/07/05 00:55:56;;;;;;;;;;;;;;;17.95;63.12;97561.13;1666723;85;20339;-87
2021/07/05 00:58:28;;;;;;;;;;;;;;;18.06;63.24;97557.75;1666692;85;25041;-87
2021/07/05 01:00:54;;;;;;;;;;;;;;;18.10;63.32;97564.37;1665513;84;22140;-89
2021/07/05 01:03:20;;;;;;;;;;;;;;;18.07;63.40;97564.70;1648604;86;21207;-89
2021/07/05 01:05:46;;;;;;;;;;;;;;;17.94;63.47;97563.97;1637348;87;20265;-89
2021/07/05 01:08:12;;;;;;;;;;;;;;;17.90;63.51;97548.91;1635615;87;20274;-88
2021/07/05 01:10:42;;;;;;;;;;;;;;;18.06;63.60;97567.02;1657173;85;20306;-89
2021/07/05 01:13:07;;;;;;;;;;;;;;;18.14;63.67;97569.63;1642798;86;22041;-89
2021/07/05 01:15:33;;;;;;;;;;;;;;;18.05;63.70;97558.27;1641240;86;25990;-89
2021/07/05 01:18:01;;;;;;;;;;;;;;;17.99;63.73;97565.59;1659255;84;24360;-89
2021/07/05 01:20:29;;;;;;;;;;;;;;;17.88;63.79;97568.14;1661906;86;20233;-89
2021/07/05 01:23:00;;;;;;;;;;;;;;;17.91;63.85;97569.59;1624636;87;24764;-89
2021/07/05 01:25:27;;;;;;;;;;;;;;;17.94;63.89;97566.61;1664064;86;21956;-89
2021/07/05 01:27:55;;;;;;;;;;;;;;;17.95;63.93;97573.53;1626285;86;21044;-89
2021/07/05 01:30:25;;;;;;;;;;;;;;;17.79;63.98;97575.77;1661020;86;25273;-89
2021/07/05 01:32:52;;;;;;;;;;;;;;;17.55;64.04;97574.55;1630663;87;20265;-89
2021/07/05 01:35:24;;;;;;;;;;;;;;;17.35;64.14;97578.56;1654282;86;24770;-88
2021/07/05 01:37:50;;;;;;;;;;;;;;;17.22;64.23;97575.16;1650558;86;22067;-89
2021/07/05 01:40:18;;;;;;;;;;;;;;;17.12;64.39;97579.32;1645560;86;25881;-89
2021/07/05 01:42:50;;;;;;;;;;;;;;;17.07;64.54;97578.97;1646056;86;24324;-88
2021/07/05 01:45:17;;;;;;;;;;;;;;;17.03;64.71;97582.12;1650594;86;20396;-89
2021/07/05 01:47:43;;;;;;;;;;;;;;;16.98;64.88;97579.98;1625291;83;24984;-88
2021/07/05 01:50:09;;;;;;;;;;;;;;;16.95;65.02;97581.66;1656003;86;21972;-89
2021/07/05 01:52:43;;;;;;;;;;;;;;;17.01;65.14;97584.95;1662645;86;21473;-89
2021/07/05 01:55:10;;;;;;;;;;;;;;;17.12;65.27;97583.28;1673408;84;24543;-89
2021/07/05 01:57:37;;;;;;;;;;;;;;;17.25;65.37;97581.91;1627681;87;20485;-89
2021/07/05 02:00:08;;;;;;;;;;;;;;;17.34;65.46;97579.09;1612164;87;24816;-88
2021/07/05 02:02:41;;;;;;;;;;;;;;;17.25;65.50;97585.87;1639549;85;22009;-91
2021/07/05 02:05:14;;;;;;;;;;;;;;;17.12;65.53;97589.06;1640607;85;26069;-90
2021/07/05 02:07:43;;;;;;;;;;;;;;;17.07;65.61;97592.72;1657280;86;25491;-89
2021/07/05 02:10:17;;;;;;;;;;;;;;;16.99;65.69;97592.71;1655047;86;20315;-90
2021/07/05 02:12:43;;;;;;;;;;;;;;;16.90;65.76;97599.02;1651284;86;24771;-88
2021/07/05 02:15:11;;;;;;;;;;;;;;;16.88;65.88;97595.20;1608408;86;22034;-89
2021/07/05 02:17:38;;;;;;;;;;;;;;;17.00;65.99;97599.66;1640558;86;27097;-89
2021/07/05 02:20:06;;;;;;;;;;;;;;;17.15;66.07;97597.97;1663410;84;24697;-89
2021/07/05 02:22:39;;;;;;;;;;;;;;;17.23;66.13;97594.00;1626476;86;20219;-89
2021/07/05 02:25:07;;;;;;;;;;;;;;;17.23;66.12;97591.35;1646997;86;25783;-89
2021/07/05 02:27:33;;;;;;;;;;;;;;;17.23;66.07;97590.03;1653181;85;21976;-89
2021/07/05 02:29:59;;;;;;;;;;;;;;;17.23;66.09;97588.71;1668916;84;25873;-89
2021/07/05 02:32:25;;;;;;;;;;;;;;;17.23;66.07;97589.20;1624449;87;24545;-89
2021/07/05 02:34:51;;;;;;;;;;;;;;;17.20;66.06;97583.74;1626832;87;20517;-89
2021/07/05 02:37:17;;;;;;;;;;;;;;;17.18;66.08;97591.53;1657588;85;24710;-89
2021/07/05 02:39:43;;;;;;;;;;;;;;;17.11;66.09;97582.12;1655091;86;22124;-89
2021/07/05 02:42:09;;;;;;;;;;;;;;;17.10;66.11;97585.27;1628918;87;26062;-88
2021/07/05 02:44:36;;;;;;;;;;;;;;;17.07;66.10;97586.11;1661553;85;24397;-88
2021/07/05 02:47:02;;;;;;;;;;;;;;;17.02;66.10;97585.78;1659563;85;20234;-88
2021/07/05 02:49:28;;;;;;;;;;;;;;;16.97;66.11;97588.08;1659005;86;20714;-88
2021/07/05 02:51:54;;;;;;;;;;;;;;;16.96;66.14;97591.25;1644150;86;22016;-88
2021/07/05 02:54:20;;;;;;;;;;;;;;;16.94;66.15;97590.58;1659360;86;20997;-88
2021/07/05 02:56:47;;;;;;;;;;;;;;;16.91;66.19;97585.61;1651335;85;24429;-88
2021/07/05 02:59:13;;;;;;;;;;;;;;;16.91;66.21;97590.09;1620008;87;20243;-88
2021/07/05 03:01:40;;;;;;;;;;;;;;;16.89;66.26;97597.36;1606346;87;24808;-88
2021/07/05 03:04:05;;;;;;;;;;;;;;;16.83;66.29;97590.92;1616008;86;20299;-86
2021/07/05 03:06:32;;;;;;;;;;;;;;;16.81;66.30;97591.57;1658316;86;21028;-86
2021/07/05 03:08:58;;;;;;;;;;;;;;;16.80;66.35;97592.55;1643829;86;25098;-85
2021/07/05 03:11:30;;;;;;;;;;;;;;;16.74;66.38;97599.86;1645864;86;20165;-85
2021/07/05 03:13:56;;;;;;;;;;;;;;;16.72;66.41;97595.22;1652021;86;25007;-85
2021/07/05 03:16:24;;;;;;;;;;;;;;;16.68;66.46;97602.66;1662690;86;22161;-86
2021/07/05 03:18:53;;;;;;;;;;;;;;;16.69;66.50;97604.81;1658552;85;26086;-86
2021/07/05 03:21:24;;;;;;;;;;;;;;;16.71;66.56;97605.45;1667156;85;24468;-86
2021/07/05 03:23:50;;;;;;;;;;;;;;;16.71;66.62;97608.92;1651377;85;20297;-86
2021/07/05 03:26:16;;;;;;;;;;;;;;;16.71;66.65;97608.09;1649139;85;24807;-85
2021/07/05 03:28:42;;;;;;;;;;;;;;;16.73;66.71;97611.41;1655638;86;20275;-88
2021/07/05 03:31:08;;;;;;;;;;;;;;;16.78;66.75;97616.19;1662497;86;26009;-88
2021/07/05 03:33:34;;;;;;;;;;;;;;;16.83;66.81;97614.70;1635749;87;20242;-88
2021/07/05 03:36:00;;;;;;;;;;;;;;;16.89;66.87;97619.33;1651668;85;20272;-89
2021/07/05 03:38:34;;;;;;;;;;;;;;;16.97;66.91;97623.27;1629769;87;24388;-88
2021/07/05 03:41:00;;;;;;;;;;;;;;;17.04;66.97;97626.91;1658492;85;21966;-88
2021/07/05 03:43:42;;;;;;;;;;;;;;;17.09;67.00;97624.58;1653308;85;21036;-88
2021/07/05 03:46:11;;;;;;;;;;;;;;;17.15;67.04;97625.23;1655170;86;24506;-88
2021/07/05 03:48:37;;;;;;;;;;;;;;;17.24;67.07;97624.71;1699670;83;20304;-89
2021/07/05 03:51:03;;;;;;;;;;;;;;;17.39;67.12;97624.86;1706927;83;20511;-88
2021/07/05 03:53:29;;;;;;;;;;;;;;;17.52;67.19;97625.97;1701576;83;21324;-88
2021/07/05 03:55:55;;;;;;;;;;;;;;;17.66;67.21;97620.51;1689438;83;26025;-88
2021/07/05 03:58:21;;;;;;;;;;;;;;;17.82;67.21;97620.94;1657947;85;20953;-88
2021/07/05 04:00:47;;;;;;;;;;;;;;;17.98;67.23;97624.33;1689146;83;20381;-88
2021/07/05 04:03:13;;;;;;;;;;;;;;;18.13;67.21;97624.41;1688716;83;20231;-88
2021/07/05 04:05:43;;;;;;;;;;;;;;;18.28;67.16;97631.10;1662156;85;22013;-88
2021/07/05 04:08:10;;;;;;;;;;;;;;;18.38;67.09;97622.45;1678420;85;39935;-88
2021/07/05 04:10:38;;;;;;;;;;;;;;;18.51;67.03;97630.63;1691623;83;24580;-85
2021/07/05 04:13:06;;;;;;;;;;;;;;;18.67;66.97;97631.86;1660425;85;20160;-86
2021/07/05 04:15:33;;;;;;;;;;;;;;;18.81;66.92;97639.55;1695459;83;25368;-85
2021/07/05 04:17:59;;;;;;;;;;;;;;;18.96;66.87;97639.59;1661219;85;21977;-85
2021/07/05 04:20:25;;;;;;;;;;;;;;;19.12;66.80;97640.27;1662688;85;26775;-85
2021/07/05 04:22:57;;;;;;;;;;;;;;;19.26;66.73;97647.09;1691610;83;25105;-86
2021/07/05 04:25:26;;;;;;;;;;;;;;;19.39;66.66;97640.67;1693291;83;20322;-87
2021/07/05 04:27:54;;;;;;;;;;;;;;;19.51;66.57;97640.58;1658502;85;24744;-86
2021/07/05 04:30:23;;;;;;;;;;;;;;;19.61;66.48;97641.95;1665686;85;22876;-88
2021/07/05 04:32:49;;;;;;;;;;;;;;;19.72;66.42;97638.52;1687869;83;26038;-87
2021/07/05 04:35:16;;;;;;;;;;;;;;;19.77;66.29;97637.45;1663858;85;20433;-88
2021/07/05 04:37:43;;;;;;;;;;;;;;;19.85;66.21;97631.55;1692045;83;20340;-88
2021/07/05 04:40:10;;;;;;;;;;;;;;;19.90;66.02;97630.50;1688031;83;24916;-88
2021/07/05 04:42:37;;;;;;;;;;;;;;;19.97;65.89;97631.88;1693230;82;21989;-87
2021/07/05 04:45:09;;;;;;;;;;;;;;;20.02;65.74;97633.47;1662633;85;26170;-88
2021/07/05 04:47:34;;;;;;;;;;;;;;;20.03;65.63;97631.97;1674890;83;24514;-89
2021/07/05 04:50:01;;;;;;;;;;;;;;;20.04;65.52;97635.45;1657849;85;20482;-88
2021/07/05 04:52:42;;;;;;;;;;;;;;;20.03;65.45;97640.44;1655564;85;25494;-89
2021/07/05 04:55:04;;;;;;;;;;;;;;;20.06;65.38;97640.08;1660215;85;22140;-88
2021/07/05 04:57:30;;;;;;;;;;;;;;;20.11;65.32;97639.52;1661038;85;26039;-88
2021/07/05 04:59:58;;;;;;;;;;;;;;;20.14;65.30;97637.30;1660826;85;24486;-87
2021/07/05 05:02:24;;;;;;;;;;;;;;;20.22;65.26;97643.84;1659862;86;20219;-88
2021/07/05 05:04:51;;;;;;;;;;;;;;;20.27;65.21;97644.61;1659609;85;24912;-85
2021/07/05 05:07:17;;;;;;;;;;;;;;;20.31;65.20;97640.09;1658958;85;22072;-86
2021/07/05 05:09:43;;;;;;;;;;;;;;;20.36;65.15;97642.18;1657334;85;26013;-85
2021/07/05 05:12:09;;;;;;;;;;;;;;;20.42;65.11;97648.08;1658593;85;20324;-85
2021/07/05 05:14:36;;;;;;;;;;;;;;;20.45;65.05;97641.90;1659666;85;20273;-86
2021/07/05 05:17:07;;;;;;;;;;;;;;;20.49;65.01;97642.84;1659449;84;24714;-86
2021/07/05 05:19:35;;;;;;;;;;;;;;;20.53;64.94;97629.48;1658296;85;21967;-86
2021/07/05 05:22:01;;;;;;;;;;;;;;;20.57;64.85;97632.89;1665028;85;25923;-85
2021/07/05 05:24:27;;;;;;;;;;;;;;;20.61;64.76;97633.36;1659056;85;24436;-85
2021/07/05 05:26:53;;;;;;;;;;;;;;;20.67;64.67;97637.41;1652860;86;20302;-86
2021/07/05 05:29:25;;;;;;;;;;;;;;;20.70;64.58;97638.35;1662938;85;25409;-87
2021/07/05 05:31:59;;;;;;;;;;;;;;;20.67;64.46;97633.93;1658089;85;22083;-87
2021/07/05 05:34:25;;;;;;;;;;;;;;;20.75;64.37;97634.61;1659034;86;25963;-87
2021/07/05 05:36:51;;;;;;;;;;;;;;;20.84;64.26;97634.78;1659017;86;24429;-87
2021/07/05 05:39:17;;;;;;;;;;;;;;;20.90;64.11;97634.53;1658954;86;20263;-87
2021/07/05 05:41:43;;;;;;;;;;;;;;;20.92;64.00;97637.83;1660284;86;24750;-87
2021/07/05 05:44:10;;;;;;;;;;;;;;;21.01;63.91;97639.33;1653951;86;22059;-88
2021/07/05 05:46:36;;;;;;;;;;;;;;;21.02;63.73;97634.84;1650207;86;20997;-88
2021/07/05 05:49:03;;;;;;;;;;;;;;;21.01;63.51;97635.34;1675194;85;20311;-88
2021/07/05 05:51:36;;;;;;;;;;;;;;;21.04;63.36;97631.48;1679241;84;20225;-90
2021/07/05 05:54:03;;;;;;;;;;;;;;;21.04;63.18;97628.32;1663271;84;24767;-90
2021/07/05 05:56:32;;;;;;;;;;;;;;;21.09;63.05;97633.89;1700621;82;22221;-90
2021/07/05 05:59:03;;;;;;;;;;;;;;;21.11;62.94;97625.19;1657237;85;26147;-90
2021/07/05 06:01:30;;;;;;;;;;;;;;;21.15;62.89;97628.33;1686701;84;25011;-86
2021/07/05 06:04:02;;;;;;;;;;;;;;;21.16;62.85;97629.48;1682167;84;20229;-85
2021/07/05 06:06:28;;;;;;;;;;;;;;;21.22;62.79;97635.33;1686950;83;24860;-85
2021/07/05 06:08:54;;;;;;;;;;;;;;;21.29;62.73;97638.87;1683080;84;22043;-86
2021/07/05 06:11:21;;;;;;;;;;;;;;;21.40;62.62;97640.67;1635922;87;27010;-86
2021/07/05 06:13:48;;;;;;;;;;;;;;;21.40;62.48;97636.69;1683360;83;24569;-87
2021/07/05 06:16:15;;;;;;;;;;;;;;;21.42;62.37;97639.48;1674850;83;20223;-87
2021/07/05 06:18:41;;;;;;;;;;;;;;;21.42;62.20;97638.66;1678566;82;24765;-87
2021/07/05 06:21:08;;;;;;;;;;;;;;;21.46;62.08;97643.39;1636401;85;21989;-86
2021/07/05 06:23:34;;;;;;;;;;;;;;;21.53;61.96;97632.28;1661584;85;26135;-87
2021/07/05 06:26:01;;;;;;;;;;;;;;;21.62;61.78;97636.42;1657088;84;24587;-87
2021/07/05 06:28:30;;;;;;;;;;;;;;;21.73;61.59;97634.22;1674634;84;20307;-87
2021/07/05 06:31:03;;;;;;;;;;;;;;;21.83;61.45;97646.16;1641056;85;24591;-87
2021/07/05 06:33:30;;;;;;;;;;;;;;;21.90;61.31;97641.70;1680186;83;21980;-88
2021/07/05 06:35:58;;;;;;;;;;;;;;;21.96;61.16;97639.61;1686065;84;26952;-88
2021/07/05 06:38:28;;;;;;;;;;;;;;;22.04;61.11;97646.59;1716728;81;25030;-92
2021/07/05 06:40:56;;;;;;;;;;;;;;;22.10;61.01;97645.80;1687163;82;20582;-88
2021/07/05 06:43:24;;;;;;;;;;;;;;;22.19;60.94;97649.12;1687496;84;25508;-87
2021/07/05 06:45:51;;;;;;;;;;;;;;;22.24;60.85;97643.52;1672973;84;22067;-86
2021/07/05 06:48:17;;;;;;;;;;;;;;;22.30;60.74;97645.38;1657755;84;26052;-87
2021/07/05 06:50:48;;;;;;;;;;;;;;;22.33;60.60;97640.97;1665886;85;24461;-86
2021/07/05 06:53:16;;;;;;;;;;;;;;;22.39;60.38;97639.34;1693807;82;20230;-87
2021/07/05 06:55:45;;;;;;;;;;;;;;;22.43;60.19;97647.24;1659153;85;26057;-86
2021/07/05 06:58:14;;;;;;;;;;;;;;;22.50;60.01;97648.92;1689048;84;21964;-86
2021/07/05 07:00:40;;;;;;;;;;;;;;;22.49;59.87;97651.78;1686232;84;25901;-85
2021/07/05 07:03:06;;;;;;;;;;;;;;;22.56;59.72;97653.95;1654361;85;24292;-85
2021/07/05 07:05:35;;;;;;;;;;;;;;;22.62;59.63;97657.66;1685367;84;20156;-86
2021/07/05 07:08:02;;;;;;;;;;;;;;;22.63;59.44;97662.80;1687059;84;24840;-86
2021/07/05 07:10:32;;;;;;;;;;;;;;;22.59;59.21;97659.38;1688569;84;22034;-88
2021/07/05 07:12:56;;;;;;;;;;;;;;;22.59;59.05;97654.88;1684975;84;26251;-88
2021/07/05 07:15:33;;;;;;;;;;;;;;;22.62;58.99;97655.83;1685272;84;24422;-88
2021/07/05 07:18:09;;;;;;;;;;;;;;;22.77;59.00;97649.00;1654318;85;20493;-86
2021/07/05 07:20:32;;;;;;;;;;;;;;;22.92;58.91;97647.78;1655839;85;25578;-86
2021/07/05 07:22:58;;;;;;;;;;;;;;;23.06;58.86;97653.96;1673241;85;21946;-89
2021/07/05 07:25:24;;;;;;;;;;;;;;;23.18;58.82;97658.17;1671140;85;21046;-89
2021/07/05 07:27:51;;;;;;;;;;;;;;;23.29;58.64;97658.89;1680781;84;24420;-89
2021/07/05 07:30:18;;;;;;;;;;;;;;;23.31;58.39;97658.15;1683758;84;20260;-89
2021/07/05 07:32:45;;;;;;;;;;;;;;;23.32;58.18;97655.28;1687990;84;24800;-89
2021/07/05 07:35:13;;;;;;;;;;;;;;;23.37;58.04;97655.99;1686483;84;22755;-89
2021/07/05 07:37:45;;;;;;;;;;;;;;;23.43;57.92;97661.84;1688126;84;26057;-89
2021/07/05 07:40:15;;;;;;;;;;;;;;;23.51;57.77;97653.63;1685047;83;25265;-89
2021/07/05 07:42:41;;;;;;;;;;;;;;;23.53;57.54;97658.77;1679714;84;20315;-89
2021/07/05 07:45:15;;;;;;;;;;;;;;;23.56;57.33;97653.03;1684907;84;25460;-89
2021/07/05 07:47:42;;;;;;;;;;;;;;;23.54;57.08;97649.23;1688337;84;21981;-89
2021/07/05 07:50:09;;;;;;;;;;;;;;;23.65;57.01;97648.59;1694520;83;25991;-89
2021/07/05 07:52:37;;;;;;;;;;;;;;;23.74;56.91;97645.98;1696210;83;24565;-89
2021/07/05 07:55:05;;;;;;;;;;;;;;;23.88;56.82;97651.31;1694594;83;20253;-89
2021/07/05 07:57:32;;;;;;;;;;;;;;;23.93;56.80;97643.48;1659803;84;24801;-89
2021/07/05 08:00:00;;;;;;;;;;;;;;;24.01;56.52;97649.91;1654024;85;21959;-89
2021/07/05 08:02:26;;;;;;;;;;;;;;;24.02;56.22;97651.05;1696018;83;26085;-89
2021/07/05 08:04:55;;;;;;;;;;;;;;;24.06;56.00;97649.59;1666310;84;24696;-89
2021/07/05 08:07:20;;;;;;;;;;;;;;;24.19;55.96;97647.42;1690699;84;20272;-89
2021/07/05 08:09:50;;;;;;;;;;;;;;;24.35;56.00;97642.09;1692419;83;25540;-89
2021/07/05 08:12:16;;;;;;;;;;;;;;;24.42;55.92;97646.39;1687803;84;21971;-88
2021/07/05 08:14:41;;;;;;;;;;;;;;;24.51;55.79;97649.62;1688839;84;21039;-88
2021/07/05 08:17:07;;;;;;;;;;;;;;;24.54;55.53;97651.37;1688594;84;20364;-88
2021/07/05 08:19:34;;;;;;;;;;;;;;;24.68;55.46;97644.58;1687442;84;20260;-88
2021/07/05 08:22:00;;;;;;;;;;;;;;;24.73;55.22;97648.25;1690529;84;20253;-88
2021/07/05 08:24:26;;;;;;;;;;;;;;;24.82;55.02;97641.59;1690182;84;21940;-88
2021/07/05 08:26:52;;;;;;;;;;;;;;;24.92;54.88;97637.97;1692950;84;26135;-88
2021/07/05 08:29:18;;;;;;;;;;;;;;;24.92;54.52;97642.50;1659852;85;25262;-88
2021/07/05 08:31:44;;;;;;;;;;;;;;;24.93;54.27;97641.44;1682199;84;20389;-88
2021/07/05 08:34:11;;;;;;;;;;;;;;;25.04;54.07;97638.06;1687889;82;24719;-88
2021/07/05 08:36:40;;;;;;;;;;;;;;;25.21;53.91;97641.02;1651289;85;22197;-88
2021/07/05 08:39:08;;;;;;;;;;;;;;;25.33;53.70;97642.77;1697213;84;25850;-88
2021/07/05 08:41:34;;;;;;;;;;;;;;;25.42;53.49;97644.64;1681231;84;24427;-88
2021/07/05 08:44:01;;;;;;;;;;;;;;;25.46;53.16;97644.52;1692306;84;20241;-88
2021/07/05 08:46:28;;;;;;;;;;;;;;;25.50;52.77;97640.87;1653136;85;24820;-88
2021/07/05 08:48:55;;;;;;;;;;;;;;;25.50;52.36;97643.55;1678815;83;22849;-88
2021/07/05 08:51:27;;;;;;;;;;;;;;;25.63;52.23;97643.45;1677389;83;25974;-89
2021/07/05 08:53:57;;;;;;;;;;;;;;;25.70;51.87;97632.13;1692720;83;24714;-88
2021/07/05 08:56:27;;;;;;;;;;;;;;;25.71;51.41;97637.79;1657669;85;20222;-88
2021/07/05 08:58:53;;;;;;;;;;;;;;;25.71;51.07;97639.95;1688834;84;24945;-88
2021/07/05 09:01:19;;;;;;;;;;;;;;;25.86;50.95;97646.28;1656142;85;20226;-88
2021/07/05 09:03:45;;;;;;;;;;;;;;;25.88;50.42;97647.41;1665039;84;25958;-88
2021/07/05 09:06:17;;;;;;;;;;;;;;;25.96;50.17;97638.56;1674785;85;20340;-88
2021/07/05 09:08:44;;;;;;;;;;;;;;;26.10;50.04;97640.55;1683057;84;20355;-89
2021/07/05 09:11:13;;;;;;;;;;;;;;;26.16;49.85;97637.79;1684873;84;24155;-88
2021/07/05 09:13:46;;;;;;;;;;;;;;;26.06;49.47;97646.89;1680897;84;22859;-89
2021/07/05 09:16:12;;;;;;;;;;;;;;;25.90;49.04;97642.66;1692282;84;26009;-88
2021/07/05 09:18:46;;;;;;;;;;;;;;;25.92;48.97;97646.73;1687761;84;24628;-88
2021/07/05 09:21:14;;;;;;;;;;;;;;;26.05;48.96;97642.56;1688882;84;20218;-88
2021/07/05 09:23:44;;;;;;;;;;;;;;;26.23;48.82;97640.43;1654441;85;24758;-88
2021/07/05 09:26:12;;;;;;;;;;;;;;;26.45;48.75;97645.61;1684893;83;22023;-88
2021/07/05 09:28:44;;;;;;;;;;;;;;;26.60;48.55;97639.82;1677031;85;26102;-87
2021/07/05 09:31:10;;;;;;;;;;;;;;;26.67;48.36;97637.87;1694218;82;24551;-90
2021/07/05 09:33:37;;;;;;;;;;;;;;;26.85;48.28;97633.76;1671221;85;20255;-90
2021/07/05 09:36:04;;;;;;;;;;;;;;;26.91;48.06;97636.08;1668841;85;24802;-89
2021/07/05 09:38:32;;;;;;;;;;;;;;;26.97;47.92;97635.98;1685526;83;22116;-89
2021/07/05 09:40:59;;;;;;;;;;;;;;;27.04;47.63;97634.54;1655339;85;26467;-90
2021/07/05 09:43:27;;;;;;;;;;;;;;;27.06;47.56;97637.27;1702086;83;24455;-89
2021/07/05 09:45:53;;;;;;;;;;;;;;;27.07;47.31;97640.78;1656788;85;20169;-88
2021/07/05 09:48:21;;;;;;;;;;;;;;;27.00;47.05;97638.19;1676743;83;25697;-87
2021/07/05 09:50:49;;;;;;;;;;;;;;;27.00;46.89;97634.16;1698340;83;22749;-87
2021/07/05 09:53:26;;;;;;;;;;;;;;;27.08;46.84;97641.08;1700497;83;26278;-87
2021/07/05 09:55:53;;;;;;;;;;;;;;;27.19;46.70;97634.91;1659837;84;24425;-87
2021/07/05 09:58:21;;;;;;;;;;;;;;;27.28;46.56;97638.05;1689303;83;20228;-87
2021/07/05 10:00:47;;;;;;;;;;;;;;;27.38;46.47;97639.14;1682186;84;24769;-86
2021/07/05 10:03:14;;;;;;;;;;;;;;;27.53;46.38;97647.28;1672908;84;22031;-86
2021/07/05 10:05:47;;;;;;;;;;;;;;;27.59;46.12;97646.34;1681279;84;26001;-89
2021/07/05 10:08:12;;;;;;;;;;;;;;;27.52;45.83;97647.80;1678518;84;25283;-90
2021/07/05 10:10:40;;;;;;;;;;;;;;;27.45;45.64;97647.88;1679447;84;20371;-89
2021/07/05 10:13:08;;;;;;;;;;;;;;;27.41;45.57;97640.00;1676609;85;24733;-90
2021/07/05 10:15:34;;;;;;;;;;;;;;;27.43;45.52;97646.50;1680822;85;21985;-89
2021/07/05 10:18:01;;;;;;;;;;;;;;;27.55;45.49;97643.29;1700505;83;26005;-88
2021/07/05 10:20:35;;;;;;;;;;;;;;;27.64;45.46;97639.74;1639658;85;24606;-89
2021/07/05 10:23:00;;;;;;;;;;;;;;;27.78;45.58;97635.73;1675019;83;20248;-89
2021/07/05 10:25:27;;;;;;;;;;;;;;;27.89;45.57;97635.73;1668025;85;24739;-88
2021/07/05 10:27:53;;;;;;;;;;;;;;;28.01;45.44;97637.58;1667801;84;21902;-85
2021/07/05 10:30:20;;;;;;;;;;;;;;;28.08;45.22;97644.99;1688684;83;26829;-85
2021/07/05 10:32:47;;;;;;;;;;;;;;;28.15;45.04;97643.81;1662419;85;25300;-85
2021/07/05 10:35:15;;;;;;;;;;;;;;;28.16;44.90;97644.64;1688376;83;20540;-85
2021/07/05 10:37:45;;;;;;;;;;;;;;;28.15;44.77;97642.47;1684922;83;24921;-85
2021/07/05 10:40:11;;;;;;;;;;;;;;;28.19;44.73;97647.69;1678006;83;21229;-85
2021/07/05 10:42:42;;;;;;;;;;;;;;;28.22;44.44;97649.07;1687019;83;25993;-85
2021/07/05 10:45:12;;;;;;;;;;;;;;;28.27;44.32;97647.83;1657907;85;24457;-89
2021/07/05 10:47:42;;;;;;;;;;;;;;;28.34;44.17;97639.09;1686293;83;20541;-88
2021/07/05 10:50:12;;;;;;;;;;;;;;;28.42;44.20;97648.12;1642627;85;24738;-88
2021/07/05 10:52:48;;;;;;;;;;;;;;;28.52;44.15;97648.34;1631919;87;22945;-88
2021/07/05 10:55:33;;;;;;;;;;;;;;;28.54;44.00;97650.24;1716098;83;26195;-89
2021/07/05 10:57:59;;;;;;;;;;;;;;;28.53;43.70;97647.81;1691860;84;25176;-89
2021/07/05 11:00:27;;;;;;;;;;;;;;;28.47;43.49;97638.82;1688694;83;20502;-88
2021/07/05 11:02:54;;;;;;;;;;;;;;;28.35;43.32;97654.19;1665959;85;24845;-88
2021/07/05 11:05:31;;;;;;;;;;;;;;;28.21;43.19;97651.47;1692384;83;22072;-88
2021/07/05 11:07:58;;;;;;;;;;;;;;;28.12;42.99;97654.22;1660249;85;26005;-89
2021/07/05 11:10:26;;;;;;;;;;;;;;;28.08;42.79;97650.38;1686183;83;24438;-89
2021/07/05 11:13:03;;;;;;;;;;;;;;;28.03;42.78;97655.13;1689277;84;20389;-89
2021/07/05 11:15:48;;;;;;;;;;;;;;;28.02;42.82;97652.14;1692592;83;24475;-89
2021/07/05 11:18:33;;;;;;;;;;;;;;;28.08;42.88;97649.03;1685256;82;22411;-89
2021/07/05 11:20:59;;;;;;;;;;;;;;;28.18;43.09;97651.95;1660642;85;26212;-89
2021/07/05 11:23:25;;;;;;;;;;;;;;;28.20;43.10;97654.69;1693696;83;24427;-89
2021/07/05 11:25:53;;;;;;;;;;;;;;;28.14;42.98;97657.01;1697395;83;20228;-89
2021/07/05 11:28:19;;;;;;;;;;;;;;;28.09;42.88;97656.05;1662803;85;24915;-88
2021/07/05 11:30:45;;;;;;;;;;;;;;;28.05;42.94;97662.94;1692591;83;21937;-88
2021/07/05 11:33:13;;;;;;;;;;;;;;;28.02;43.00;97655.36;1696032;83;25989;-89
2021/07/05 11:35:54;;;;;;;;;;;;;;;28.05;43.20;97660.25;1679570;85;24484;-89
2021/07/05 11:38:27;;;;;;;;;;;;;;;28.06;43.34;97657.33;1693329;83;20224;-89
2021/07/05 11:40:55;;;;;;;;;;;;;;;28.08;43.45;97663.30;1688337;83;24734;-89
2021/07/05 11:43:40;;;;;;;;;;;;;;;28.05;43.46;97665.11;1691159;83;22010;-89
2021/07/05 11:46:06;;;;;;;;;;;;;;;28.10;43.56;97671.11;1693357;83;26058;-89
2021/07/05 11:48:44;;;;;;;;;;;;;;;28.11;43.67;97665.51;1677680;85;24395;-88
2021/07/05 11:51:17;;;;;;;;;;;;;;;28.09;43.84;97667.64;1661341;83;20222;-89
2021/07/05 11:53:45;;;;;;;;;;;;;;;28.05;43.97;97673.17;1661640;85;24802;-88
2021/07/05 11:56:13;;;;;;;;;;;;;;;28.00;44.12;97673.59;1652433;85;22623;-89
2021/07/05 11:58:40;;;;;;;;;;;;;;;27.89;44.02;97672.56;1657958;85;26766;-89
2021/07/05 12:01:10;;;;;;;;;;;;;;;27.77;43.93;97672.56;1668722;85;24439;-89
2021/07/05 12:03:55;;;;;;;;;;;;;;;27.70;43.87;97672.41;1664630;85;20175;-89
2021/07/05 12:06:23;;;;;;;;;;;;;;;27.66;43.86;97675.25;1663775;85;24772;-89
2021/07/05 12:08:52;;;;;;;;;;;;;;;27.70;43.98;97670.55;1666814;85;22094;-89
2021/07/05 12:11:44;;;;;;;;;;;;;;;27.73;44.04;97672.75;1672965;85;25965;-89
2021/07/05 12:14:18;;;;;;;;;;;;;;;27.72;43.94;97669.77;1672338;85;23923;-88
2021/07/05 12:16:53;;;;;;;;;;;;;;;27.78;44.03;97668.83;1698382;83;20244;-89
2021/07/05 12:19:19;;;;;;;;;;;;;;;27.80;44.04;97668.08;1694844;84;24888;-88
2021/07/05 12:21:54;;;;;;;;;;;;;;;27.82;43.86;97669.98;1697527;83;22001;-89
2021/07/05 12:24:25;;;;;;;;;;;;;;;27.87;43.90;97667.44;1701586;83;25991;-85
2021/07/05 12:27:05;;;;;;;;;;;;;;;27.92;43.87;97673.97;1645155;85;24613;-86
2021/07/05 12:29:40;;;;;;;;;;;;;;;27.91;43.79;97660.23;1660075;85;20259;-85
2021/07/05 12:32:13;;;;;;;;;;;;;;;27.88;43.78;97667.70;1657808;85;24959;-88
2021/07/05 12:34:45;;;;;;;;;;;;;;;27.91;43.92;97666.42;1661976;86;21943;-88
2021/07/05 12:37:13;;;;;;;;;;;;;;;27.94;44.06;97665.94;1610105;85;25946;-89
2021/07/05 12:39:51;;;;;;;;;;;;;;;27.94;43.98;97667.81;1627747;88;24541;-88
2021/07/05 12:42:28;;;;;;;;;;;;;;;27.99;44.09;97672.77;1624550;88;20509;-89
2021/07/05 12:44:56;;;;;;;;;;;;;;;27.95;44.01;97674.83;1602043;88;25762;-88
2021/07/05 12:47:23;;;;;;;;;;;;;;;27.96;43.92;97669.22;1618241;88;21946;-88
2021/07/05 12:49:50;;;;;;;;;;;;;;;28.06;44.01;97672.66;1623515;86;26031;-88
2021/07/05 12:52:20;;;;;;;;;;;;;;;28.15;43.99;97673.94;1652618;86;24667;-88
2021/07/05 12:54:47;;;;;;;;;;;;;;;28.24;44.02;97667.16;1651807;86;20224;-89